sensor_id;sensor_type;location;lat;lon;timestamp;temperature;humidity
49224;DHT22;35050;51.316;5.994;2022-09-25T00:00:54;14.20;99.90
49224;DHT22;35050;51.316;5.994;2022-09-25T00:03:22;14.20;99.90
49224;DHT22;35050;51.316;5.994;2022-09-25T00:05:50;14.30;99.90
49224;DHT22;35050;51.316;5.994;2022-09-25T00:08:17;14.30;99.90
49224;DHT22;35050;51.316;5.994;2022-09-25T00:10:48;14.30;99.90
49224;DHT22;35050;51.316;5.994;2022-09-25T00:13:15;14.30;99.90
49224;DHT22;35050;51.316;5.994;2022-09-25T00:15:47;14.30;99.90
49224;DHT22;35050;51.316;5.994;2022-09-25T00:18:13;14.20;99.90
49224;DHT22;35050;51.316;5.994;2022-09-25T00:20:39;14.10;99.90
49224;DHT22;35050;51.316;5.994;2022-09-25T00:23:05;14.20;99.90
49224;DHT22;35050;51.316;5.994;2022-09-25T00:25:31;14.30;99.90
49224;DHT22;35050;51.316;5.994;2022-09-25T00:27:57;14.20;99.90
49224;DHT22;35050;51.316;5.994;2022-09-25T00:30:22;14.20;99.90
49224;DHT22;35050;51.316;5.994;2022-09-25T00:32:48;14.10;99.90
49224;DHT22;35050;51.316;5.994;2022-09-25T00:35:14;14.20;99.90
49224;DHT22;35050;51.316;5.994;2022-09-25T00:37:40;14.10;99.90
49224;DHT22;35050;51.316;5.994;2022-09-25T00:40:06;14.10;99.90
49224;DHT22;35050;51.316;5.994;2022-09-25T00:42:32;14.10;99.90
49224;DHT22;35050;51.316;5.994;2022-09-25T00:45:16;14.10;99.90
49224;DHT22;35050;51.316;5.994;2022-09-25T00:48:00;14.10;99.90
49224;DHT22;35050;51.316;5.994;2022-09-25T00:50:38;13.90;99.90
49224;DHT22;35050;51.316;5.994;2022-09-25T00:53:13;13.80;99.90
49224;DHT22;35050;51.316;5.994;2022-09-25T00:55:43;13.80;99.90
49224;DHT22;35050;51.316;5.994;2022-09-25T00:58:11;13.90;99.90
49224;DHT22;35050;51.316;5.994;2022-09-25T01:00:39;14.00;99.90
49224;DHT22;35050;51.316;5.994;2022-09-25T01:03:06;13.90;99.90
49224;DHT22;35050;51.316;5.994;2022-09-25T01:05:36;13.80;99.90
49224;DHT22;35050;51.316;5.994;2022-09-25T01:08:04;13.80;99.90
49224;DHT22;35050;51.316;5.994;2022-09-25T01:10:31;13.80;99.90
49224;DHT22;35050;51.316;5.994;2022-09-25T01:12:59;13.90;99.90
49224;DHT22;35050;51.316;5.994;2022-09-25T01:18:15;13.70;99.90
49224;DHT22;35050;51.316;5.994;2022-09-25T01:32:09;13.80;99.90
49224;DHT22;35050;51.316;5.994;2022-09-25T01:35:00;13.80;99.90
49224;DHT22;35050;51.316;5.994;2022-09-25T01:37:43;13.70;99.90
49224;DHT22;35050;51.316;5.994;2022-09-25T01:40:14;13.70;99.90
49224;DHT22;35050;51.316;5.994;2022-09-25T01:42:49;13.70;99.90
49224;DHT22;35050;51.316;5.994;2022-09-25T01:45:23;13.60;99.90
49224;DHT22;35050;51.316;5.994;2022-09-25T01:47:55;13.60;99.90
49224;DHT22;35050;51.316;5.994;2022-09-25T01:50:35;13.60;99.90
49224;DHT22;35050;51.316;5.994;2022-09-25T01:53:07;13.40;99.90
49224;DHT22;35050;51.316;5.994;2022-09-25T01:55:44;13.40;99.90
49224;DHT22;35050;51.316;5.994;2022-09-25T01:58:18;13.50;99.90
49224;DHT22;35050;51.316;5.994;2022-09-25T02:00:56;13.40;99.90
49224;DHT22;35050;51.316;5.994;2022-09-25T02:03:28;13.40;99.90
49224;DHT22;35050;51.316;5.994;2022-09-25T02:05:59;13.50;99.90
49224;DHT22;35050;51.316;5.994;2022-09-25T02:08:35;13.50;99.90
49224;DHT22;35050;51.316;5.994;2022-09-25T02:11:05;13.60;99.90
49224;DHT22;35050;51.316;5.994;2022-09-25T02:13:49;13.70;99.90
49224;DHT22;35050;51.316;5.994;2022-09-25T02:16:19;13.60;99.90
49224;DHT22;35050;51.316;5.994;2022-09-25T02:18:47;13.60;99.90
49224;DHT22;35050;51.316;5.994;2022-09-25T02:26:38;13.60;99.90
49224;DHT22;35050;51.316;5.994;2022-09-25T02:29:04;13.50;99.90
49224;DHT22;35050;51.316;5.994;2022-09-25T02:31:41;13.50;99.90
49224;DHT22;35050;51.316;5.994;2022-09-25T02:34:07;13.60;99.90
49224;DHT22;35050;51.316;5.994;2022-09-25T02:36:34;13.40;99.90
49224;DHT22;35050;51.316;5.994;2022-09-25T02:39:02;13.40;99.90
49224;DHT22;35050;51.316;5.994;2022-09-25T02:47:02;13.30;99.90
49224;DHT22;35050;51.316;5.994;2022-09-25T02:49:47;13.40;99.90
49224;DHT22;35050;51.316;5.994;2022-09-25T02:52:46;13.40;99.90
49224;DHT22;35050;51.316;5.994;2022-09-25T02:55:52;13.20;99.90
49224;DHT22;35050;51.316;5.994;2022-09-25T02:58:44;13.10;99.90
49224;DHT22;35050;51.316;5.994;2022-09-25T03:01:13;13.30;99.90
49224;DHT22;35050;51.316;5.994;2022-09-25T03:03:41;13.20;99.90
49224;DHT22;35050;51.316;5.994;2022-09-25T03:06:09;13.10;99.90
49224;DHT22;35050;51.316;5.994;2022-09-25T03:08:37;13.10;99.90
49224;DHT22;35050;51.316;5.994;2022-09-25T03:11:13;13.10;99.90
49224;DHT22;35050;51.316;5.994;2022-09-25T03:13:40;13.10;99.90
49224;DHT22;35050;51.316;5.994;2022-09-25T03:16:17;13.10;99.90
49224;DHT22;35050;51.316;5.994;2022-09-25T03:18:46;13.10;99.90
49224;DHT22;35050;51.316;5.994;2022-09-25T03:21:12;13.20;99.90
49224;DHT22;35050;51.316;5.994;2022-09-25T03:23:38;13.10;99.90
49224;DHT22;35050;51.316;5.994;2022-09-25T03:26:04;13.10;99.90
49224;DHT22;35050;51.316;5.994;2022-09-25T03:28:30;13.10;99.90
49224;DHT22;35050;51.316;5.994;2022-09-25T03:30:58;13.30;99.90
49224;DHT22;35050;51.316;5.994;2022-09-25T03:33:24;13.20;99.90
49224;DHT22;35050;51.316;5.994;2022-09-25T03:38:34;13.20;99.90
49224;DHT22;35050;51.316;5.994;2022-09-25T03:41:00;13.30;99.90
49224;DHT22;35050;51.316;5.994;2022-09-25T03:43:26;13.20;99.90
49224;DHT22;35050;51.316;5.994;2022-09-25T03:45:52;13.30;99.90
49224;DHT22;35050;51.316;5.994;2022-09-25T03:48:18;13.40;99.90
49224;DHT22;35050;51.316;5.994;2022-09-25T03:50:44;13.40;99.90
49224;DHT22;35050;51.316;5.994;2022-09-25T03:53:11;13.30;99.90
49224;DHT22;35050;51.316;5.994;2022-09-25T03:55:36;13.30;99.90
49224;DHT22;35050;51.316;5.994;2022-09-25T03:58:02;13.30;99.90
49224;DHT22;35050;51.316;5.994;2022-09-25T04:00:27;13.10;99.90
49224;DHT22;35050;51.316;5.994;2022-09-25T04:02:53;13.20;99.90
49224;DHT22;35050;51.316;5.994;2022-09-25T04:05:19;13.20;99.90
49224;DHT22;35050;51.316;5.994;2022-09-25T04:07:45;13.20;99.90
49224;DHT22;35050;51.316;5.994;2022-09-25T04:10:11;13.20;99.90
49224;DHT22;35050;51.316;5.994;2022-09-25T04:12:39;13.20;99.90
49224;DHT22;35050;51.316;5.994;2022-09-25T04:15:06;13.20;99.90
49224;DHT22;35050;51.316;5.994;2022-09-25T04:17:33;13.20;99.90
49224;DHT22;35050;51.316;5.994;2022-09-25T04:20:00;13.10;99.90
49224;DHT22;35050;51.316;5.994;2022-09-25T04:22:26;13.20;99.90
49224;DHT22;35050;51.316;5.994;2022-09-25T04:24:51;13.10;99.90
49224;DHT22;35050;51.316;5.994;2022-09-25T04:27:21;13.10;99.90
49224;DHT22;35050;51.316;5.994;2022-09-25T04:29:47;13.10;99.90
49224;DHT22;35050;51.316;5.994;2022-09-25T04:32:14;13.00;99.90
49224;DHT22;35050;51.316;5.994;2022-09-25T04:34:59;13.00;99.90
49224;DHT22;35050;51.316;5.994;2022-09-25T04:37:25;13.00;99.90
49224;DHT22;35050;51.316;5.994;2022-09-25T04:39:53;13.00;99.90
49224;DHT22;35050;51.316;5.994;2022-09-25T04:42:18;13.00;99.90
49224;DHT22;35050;51.316;5.994;2022-09-25T04:44:58;12.90;99.90
49224;DHT22;35050;51.316;5.994;2022-09-25T04:47:25;12.90;99.90
49224;DHT22;35050;51.316;5.994;2022-09-25T04:49:52;12.90;99.90
49224;DHT22;35050;51.316;5.994;2022-09-25T04:52:19;12.80;99.90
49224;DHT22;35050;51.316;5.994;2022-09-25T04:54:45;12.70;99.90
49224;DHT22;35050;51.316;5.994;2022-09-25T04:57:16;12.70;99.90
49224;DHT22;35050;51.316;5.994;2022-09-25T04:59:42;12.70;99.90
49224;DHT22;35050;51.316;5.994;2022-09-25T05:02:08;12.60;99.90
49224;DHT22;35050;51.316;5.994;2022-09-25T05:04:33;12.60;99.90
49224;DHT22;35050;51.316;5.994;2022-09-25T05:06:59;12.60;99.90
49224;DHT22;35050;51.316;5.994;2022-09-25T05:09:25;12.60;99.90
49224;DHT22;35050;51.316;5.994;2022-09-25T05:11:50;12.50;99.90
49224;DHT22;35050;51.316;5.994;2022-09-25T05:14:16;12.50;99.90
49224;DHT22;35050;51.316;5.994;2022-09-25T05:16:41;12.50;99.90
49224;DHT22;35050;51.316;5.994;2022-09-25T05:19:08;12.40;99.90
49224;DHT22;35050;51.316;5.994;2022-09-25T05:21:33;12.50;99.90
49224;DHT22;35050;51.316;5.994;2022-09-25T05:23:59;12.50;99.90
49224;DHT22;35050;51.316;5.994;2022-09-25T05:26:25;12.40;99.90
49224;DHT22;35050;51.316;5.994;2022-09-25T05:28:54;12.30;99.90
49224;DHT22;35050;51.316;5.994;2022-09-25T05:31:19;12.40;99.90
49224;DHT22;35050;51.316;5.994;2022-09-25T05:33:45;12.40;99.90
49224;DHT22;35050;51.316;5.994;2022-09-25T05:36:11;12.20;99.90
49224;DHT22;35050;51.316;5.994;2022-09-25T05:38:38;12.20;99.90
49224;DHT22;35050;51.316;5.994;2022-09-25T05:41:06;12.20;99.90
49224;DHT22;35050;51.316;5.994;2022-09-25T05:43:34;12.20;99.90
49224;DHT22;35050;51.316;5.994;2022-09-25T05:46:02;12.30;99.90
49224;DHT22;35050;51.316;5.994;2022-09-25T05:48:27;12.30;99.90
49224;DHT22;35050;51.316;5.994;2022-09-25T05:50:54;12.30;99.90
49224;DHT22;35050;51.316;5.994;2022-09-25T05:53:21;12.40;99.90
49224;DHT22;35050;51.316;5.994;2022-09-25T05:55:57;12.30;99.90
49224;DHT22;35050;51.316;5.994;2022-09-25T05:58:24;12.30;99.90
49224;DHT22;35050;51.316;5.994;2022-09-25T06:00:50;12.40;99.90
49224;DHT22;35050;51.316;5.994;2022-09-25T06:03:16;12.30;99.90
49224;DHT22;35050;51.316;5.994;2022-09-25T06:05:42;12.30;99.90
49224;DHT22;35050;51.316;5.994;2022-09-25T06:08:09;12.30;99.90
49224;DHT22;35050;51.316;5.994;2022-09-25T06:10:35;12.40;99.90
49224;DHT22;35050;51.316;5.994;2022-09-25T06:13:02;12.30;99.90
49224;DHT22;35050;51.316;5.994;2022-09-25T06:15:33;12.40;99.90
49224;DHT22;35050;51.316;5.994;2022-09-25T06:18:01;12.40;99.90
49224;DHT22;35050;51.316;5.994;2022-09-25T06:20:26;12.40;99.90
49224;DHT22;35050;51.316;5.994;2022-09-25T06:22:53;12.50;99.90
49224;DHT22;35050;51.316;5.994;2022-09-25T06:25:23;12.60;99.90
49224;DHT22;35050;51.316;5.994;2022-09-25T06:27:54;12.50;99.90
49224;DHT22;35050;51.316;5.994;2022-09-25T06:30:21;12.60;99.90
49224;DHT22;35050;51.316;5.994;2022-09-25T06:32:47;12.70;99.90
49224;DHT22;35050;51.316;5.994;2022-09-25T06:35:13;12.70;99.90
49224;DHT22;35050;51.316;5.994;2022-09-25T06:37:39;12.70;99.90
49224;DHT22;35050;51.316;5.994;2022-09-25T06:40:05;12.80;99.90
49224;DHT22;35050;51.316;5.994;2022-09-25T06:42:31;12.80;99.90
49224;DHT22;35050;51.316;5.994;2022-09-25T06:44:59;12.80;99.90
49224;DHT22;35050;51.316;5.994;2022-09-25T06:47:25;12.90;99.90
49224;DHT22;35050;51.316;5.994;2022-09-25T06:49:51;12.90;99.90
49224;DHT22;35050;51.316;5.994;2022-09-25T06:52:16;13.00;99.90
49224;DHT22;35050;51.316;5.994;2022-09-25T06:54:42;12.70;99.90
49224;DHT22;35050;51.316;5.994;2022-09-25T06:57:08;12.80;99.90
49224;DHT22;35050;51.316;5.994;2022-09-25T06:59:34;12.70;99.90
49224;DHT22;35050;51.316;5.994;2022-09-25T07:02:00;12.90;99.90
49224;DHT22;35050;51.316;5.994;2022-09-25T07:04:46;12.80;99.90
49224;DHT22;35050;51.316;5.994;2022-09-25T07:07:19;12.90;99.90
49224;DHT22;35050;51.316;5.994;2022-09-25T07:09:46;12.70;99.90
49224;DHT22;35050;51.316;5.994;2022-09-25T07:12:15;12.60;99.90
49224;DHT22;35050;51.316;5.994;2022-09-25T07:14:46;12.80;99.90
49224;DHT22;35050;51.316;5.994;2022-09-25T07:17:14;12.90;99.90
49224;DHT22;35050;51.316;5.994;2022-09-25T07:19:40;12.80;99.90
49224;DHT22;35050;51.316;5.994;2022-09-25T07:22:05;12.80;99.90
49224;DHT22;35050;51.316;5.994;2022-09-25T07:24:31;12.70;99.90
49224;DHT22;35050;51.316;5.994;2022-09-25T07:26:57;12.90;99.90
49224;DHT22;35050;51.316;5.994;2022-09-25T07:29:23;12.90;99.90
49224;DHT22;35050;51.316;5.994;2022-09-25T07:31:49;12.80;99.90
49224;DHT22;35050;51.316;5.994;2022-09-25T07:34:15;13.00;99.90
49224;DHT22;35050;51.316;5.994;2022-09-25T07:36:42;12.90;99.90
49224;DHT22;35050;51.316;5.994;2022-09-25T07:39:08;12.90;99.90
49224;DHT22;35050;51.316;5.994;2022-09-25T07:41:34;13.00;99.90
49224;DHT22;35050;51.316;5.994;2022-09-25T07:44:01;12.90;99.90
49224;DHT22;35050;51.316;5.994;2022-09-25T07:46:27;12.90;99.90
49224;DHT22;35050;51.316;5.994;2022-09-25T07:48:53;13.10;99.90
49224;DHT22;35050;51.316;5.994;2022-09-25T07:51:19;13.20;99.90
49224;DHT22;35050;51.316;5.994;2022-09-25T07:53:48;13.20;99.90
49224;DHT22;35050;51.316;5.994;2022-09-25T07:56:14;13.40;99.90
49224;DHT22;35050;51.316;5.994;2022-09-25T07:58:40;13.60;99.90
49224;DHT22;35050;51.316;5.994;2022-09-25T08:01:09;13.70;99.90
49224;DHT22;35050;51.316;5.994;2022-09-25T08:03:35;13.80;99.90
49224;DHT22;35050;51.316;5.994;2022-09-25T08:06:02;14.10;99.90
49224;DHT22;35050;51.316;5.994;2022-09-25T08:08:29;14.10;99.90
49224;DHT22;35050;51.316;5.994;2022-09-25T08:11:12;14.40;99.90
49224;DHT22;35050;51.316;5.994;2022-09-25T08:13:39;14.50;99.90
49224;DHT22;35050;51.316;5.994;2022-09-25T08:16:11;14.60;99.90
49224;DHT22;35050;51.316;5.994;2022-09-25T08:18:38;14.80;99.90
49224;DHT22;35050;51.316;5.994;2022-09-25T08:21:07;14.80;99.90
49224;DHT22;35050;51.316;5.994;2022-09-25T08:23:33;14.90;99.90
49224;DHT22;35050;51.316;5.994;2022-09-25T08:25:59;15.20;99.90
49224;DHT22;35050;51.316;5.994;2022-09-25T08:28:26;15.20;99.90
49224;DHT22;35050;51.316;5.994;2022-09-25T08:30:52;15.10;99.90
49224;DHT22;35050;51.316;5.994;2022-09-25T08:33:18;15.50;99.90
49224;DHT22;35050;51.316;5.994;2022-09-25T08:35:57;15.70;99.90
49224;DHT22;35050;51.316;5.994;2022-09-25T08:38:24;15.80;99.90
49224;DHT22;35050;51.316;5.994;2022-09-25T08:40:56;16.00;99.90
49224;DHT22;35050;51.316;5.994;2022-09-25T08:43:24;16.30;99.90
49224;DHT22;35050;51.316;5.994;2022-09-25T08:45:50;16.20;99.90
49224;DHT22;35050;51.316;5.994;2022-09-25T08:48:41;16.10;99.90
49224;DHT22;35050;51.316;5.994;2022-09-25T08:51:28;16.50;99.90
49224;DHT22;35050;51.316;5.994;2022-09-25T08:53:54;16.90;99.90
49224;DHT22;35050;51.316;5.994;2022-09-25T08:56:20;16.80;99.90
49224;DHT22;35050;51.316;5.994;2022-09-25T08:59:34;17.00;99.90
49224;DHT22;35050;51.316;5.994;2022-09-25T09:01:45;17.10;99.90
49224;DHT22;35050;51.316;5.994;2022-09-25T09:04:20;17.40;99.90
49224;DHT22;35050;51.316;5.994;2022-09-25T09:06:51;17.10;99.90
49224;DHT22;35050;51.316;5.994;2022-09-25T09:09:30;17.50;99.90
49224;DHT22;35050;51.316;5.994;2022-09-25T09:12:13;17.70;99.90
49224;DHT22;35050;51.316;5.994;2022-09-25T09:14:46;17.60;99.90
49224;DHT22;35050;51.316;5.994;2022-09-25T09:19:49;18.00;99.90
49224;DHT22;35050;51.316;5.994;2022-09-25T09:22:18;18.00;99.90
49224;DHT22;35050;51.316;5.994;2022-09-25T09:25:02;18.00;99.90
49224;DHT22;35050;51.316;5.994;2022-09-25T09:30:19;17.90;99.90
49224;DHT22;35050;51.316;5.994;2022-09-25T09:35:52;17.20;99.90
49224;DHT22;35050;51.316;5.994;2022-09-25T09:38:57;17.40;99.90
49224;DHT22;35050;51.316;5.994;2022-09-25T09:49:39;17.10;99.90
49224;DHT22;35050;51.316;5.994;2022-09-25T09:52:35;16.50;99.90
49224;DHT22;35050;51.316;5.994;2022-09-25T09:55:21;16.40;99.90
49224;DHT22;35050;51.316;5.994;2022-09-25T09:57:56;16.70;99.90
49224;DHT22;35050;51.316;5.994;2022-09-25T10:00:23;17.00;99.90
49224;DHT22;35050;51.316;5.994;2022-09-25T10:03:03;16.80;99.90
49224;DHT22;35050;51.316;5.994;2022-09-25T10:08:03;16.80;99.90
49224;DHT22;35050;51.316;5.994;2022-09-25T10:10:36;17.10;99.90
49224;DHT22;35050;51.316;5.994;2022-09-25T10:13:04;17.70;99.90
49224;DHT22;35050;51.316;5.994;2022-09-25T10:15:48;18.10;99.90
49224;DHT22;35050;51.316;5.994;2022-09-25T10:18:16;18.70;99.90
49224;DHT22;35050;51.316;5.994;2022-09-25T10:20:54;19.20;99.90
49224;DHT22;35050;51.316;5.994;2022-09-25T10:26:27;19.80;99.90
49224;DHT22;35050;51.316;5.994;2022-09-25T10:28:55;19.40;99.90
49224;DHT22;35050;51.316;5.994;2022-09-25T10:31:27;19.10;99.90
49224;DHT22;35050;51.316;5.994;2022-09-25T10:34:05;18.60;99.90
49224;DHT22;35050;51.316;5.994;2022-09-25T10:36:41;18.10;99.90
49224;DHT22;35050;51.316;5.994;2022-09-25T10:39:28;18.90;99.90
49224;DHT22;35050;51.316;5.994;2022-09-25T10:41:55;19.60;99.90
49224;DHT22;35050;51.316;5.994;2022-09-25T10:44:29;20.50;99.90
49224;DHT22;35050;51.316;5.994;2022-09-25T10:58:18;18.60;99.90
49224;DHT22;35050;51.316;5.994;2022-09-25T11:03:37;18.80;99.90
49224;DHT22;35050;51.316;5.994;2022-09-25T11:06:15;19.70;99.90
49224;DHT22;35050;51.316;5.994;2022-09-25T11:08:46;18.90;99.90
49224;DHT22;35050;51.316;5.994;2022-09-25T11:11:22;19.80;99.90
49224;DHT22;35050;51.316;5.994;2022-09-25T11:13:53;20.60;99.90
49224;DHT22;35050;51.316;5.994;2022-09-25T11:16:20;20.90;99.60
49224;DHT22;35050;51.316;5.994;2022-09-25T11:18:50;21.30;99.00
49224;DHT22;35050;51.316;5.994;2022-09-25T11:21:37;21.60;97.00
49224;DHT22;35050;51.316;5.994;2022-09-25T11:24:14;21.60;96.40
49224;DHT22;35050;51.316;5.994;2022-09-25T11:39:11;21.50;95.50
49224;DHT22;35050;51.316;5.994;2022-09-25T11:41:43;21.00;96.90
49224;DHT22;35050;51.316;5.994;2022-09-25T11:47:16;21.90;97.00
49224;DHT22;35050;51.316;5.994;2022-09-25T11:49:47;22.20;96.20
49224;DHT22;35050;51.316;5.994;2022-09-25T12:00:13;21.00;95.60
49224;DHT22;35050;51.316;5.994;2022-09-25T12:03:15;20.60;96.30
49224;DHT22;35050;51.316;5.994;2022-09-25T12:06:26;20.50;96.30
49224;DHT22;35050;51.316;5.994;2022-09-25T12:22:15;22.70;94.30
49224;DHT22;35050;51.316;5.994;2022-09-25T12:24:54;22.40;94.10
49224;DHT22;35050;51.316;5.994;2022-09-25T12:30:20;22.60;95.00
49224;DHT22;35050;51.316;5.994;2022-09-25T12:38:25;21.60;94.00
49224;DHT22;35050;51.316;5.994;2022-09-25T12:44:03;21.40;94.10
49224;DHT22;35050;51.316;5.994;2022-09-25T12:47:00;22.30;92.90
49224;DHT22;35050;51.316;5.994;2022-09-25T12:49:44;22.80;92.60
49224;DHT22;35050;51.316;5.994;2022-09-25T12:52:14;23.40;91.90
49224;DHT22;35050;51.316;5.994;2022-09-25T12:54:57;23.50;91.50
49224;DHT22;35050;51.316;5.994;2022-09-25T12:57:25;23.70;90.60
49224;DHT22;35050;51.316;5.994;2022-09-25T13:00:05;24.00;91.30
49224;DHT22;35050;51.316;5.994;2022-09-25T13:03:02;24.60;91.00
49224;DHT22;35050;51.316;5.994;2022-09-25T13:06:33;24.30;90.60
49224;DHT22;35050;51.316;5.994;2022-09-25T13:08:48;24.30;88.80
49224;DHT22;35050;51.316;5.994;2022-09-25T13:11:38;23.80;90.70
49224;DHT22;35050;51.316;5.994;2022-09-25T13:16:49;22.40;91.30
49224;DHT22;35050;51.316;5.994;2022-09-25T13:19:29;22.10;91.50
49224;DHT22;35050;51.316;5.994;2022-09-25T13:24:41;21.70;92.80
49224;DHT22;35050;51.316;5.994;2022-09-25T13:27:14;21.70;93.00
49224;DHT22;35050;51.316;5.994;2022-09-25T13:29:41;22.20;91.80
49224;DHT22;35050;51.316;5.994;2022-09-25T13:32:17;22.60;91.50
49224;DHT22;35050;51.316;5.994;2022-09-25T13:34:44;22.80;90.20
49224;DHT22;35050;51.316;5.994;2022-09-25T13:37:11;22.10;90.70
49224;DHT22;35050;51.316;5.994;2022-09-25T13:39:47;21.60;91.20
49224;DHT22;35050;51.316;5.994;2022-09-25T13:42:40;21.60;92.00
49224;DHT22;35050;51.316;5.994;2022-09-25T13:45:31;21.20;92.80
49224;DHT22;35050;51.316;5.994;2022-09-25T13:48:08;21.40;93.10
49224;DHT22;35050;51.316;5.994;2022-09-25T13:50:40;21.30;93.00
49224;DHT22;35050;51.316;5.994;2022-09-25T13:53:18;21.00;92.20
49224;DHT22;35050;51.316;5.994;2022-09-25T13:58:57;20.80;93.00
49224;DHT22;35050;51.316;5.994;2022-09-25T14:01:53;20.60;93.20
49224;DHT22;35050;51.316;5.994;2022-09-25T14:04:32;20.60;93.90
49224;DHT22;35050;51.316;5.994;2022-09-25T14:07:22;20.40;93.60
49224;DHT22;35050;51.316;5.994;2022-09-25T14:09:53;20.00;93.40
49224;DHT22;35050;51.316;5.994;2022-09-25T14:12:34;20.10;93.40
49224;DHT22;35050;51.316;5.994;2022-09-25T14:15:06;20.30;93.30
49224;DHT22;35050;51.316;5.994;2022-09-25T14:17:34;20.10;93.00
49224;DHT22;35050;51.316;5.994;2022-09-25T14:20:04;20.10;93.50
49224;DHT22;35050;51.316;5.994;2022-09-25T14:22:51;20.10;93.10
49224;DHT22;35050;51.316;5.994;2022-09-25T14:25:33;20.20;93.40
49224;DHT22;35050;51.316;5.994;2022-09-25T14:28:02;20.00;93.20
49224;DHT22;35050;51.316;5.994;2022-09-25T14:30:28;19.90;93.70
49224;DHT22;35050;51.316;5.994;2022-09-25T14:35:56;20.00;92.90
49224;DHT22;35050;51.316;5.994;2022-09-25T14:46:56;20.80;92.20
49224;DHT22;35050;51.316;5.994;2022-09-25T14:49:26;21.00;92.40
49224;DHT22;35050;51.316;5.994;2022-09-25T14:52:01;20.90;91.70
49224;DHT22;35050;51.316;5.994;2022-09-25T14:54:31;21.30;92.20
49224;DHT22;35050;51.316;5.994;2022-09-25T14:57:01;21.30;91.50
49224;DHT22;35050;51.316;5.994;2022-09-25T14:59:37;21.40;91.40
49224;DHT22;35050;51.316;5.994;2022-09-25T15:02:19;21.60;91.30
49224;DHT22;35050;51.316;5.994;2022-09-25T15:04:48;21.50;91.80
49224;DHT22;35050;51.316;5.994;2022-09-25T15:07:14;21.30;91.00
49224;DHT22;35050;51.316;5.994;2022-09-25T15:09:43;21.50;91.30
49224;DHT22;35050;51.316;5.994;2022-09-25T15:15:16;20.50;91.00
49224;DHT22;35050;51.316;5.994;2022-09-25T15:17:50;20.70;92.40
49224;DHT22;35050;51.316;5.994;2022-09-25T15:20:19;20.40;93.20
49224;DHT22;35050;51.316;5.994;2022-09-25T15:22:57;20.00;91.70
49224;DHT22;35050;51.316;5.994;2022-09-25T15:25:29;20.10;92.20
49224;DHT22;35050;51.316;5.994;2022-09-25T15:27:56;20.20;92.90
49224;DHT22;35050;51.316;5.994;2022-09-25T15:30:25;20.20;93.10
49224;DHT22;35050;51.316;5.994;2022-09-25T15:32:53;19.80;92.50
49224;DHT22;35050;51.316;5.994;2022-09-25T15:35:24;19.80;92.60
49224;DHT22;35050;51.316;5.994;2022-09-25T15:38:02;20.00;92.80
49224;DHT22;35050;51.316;5.994;2022-09-25T15:40:29;21.10;92.70
49224;DHT22;35050;51.316;5.994;2022-09-25T15:42:55;21.10;92.40
49224;DHT22;35050;51.316;5.994;2022-09-25T15:48:22;21.30;91.50
49224;DHT22;35050;51.316;5.994;2022-09-25T15:50:49;20.50;92.00
49224;DHT22;35050;51.316;5.994;2022-09-25T15:56:20;20.00;91.90
49224;DHT22;35050;51.316;5.994;2022-09-25T16:01:47;19.80;93.50
49224;DHT22;35050;51.316;5.994;2022-09-25T16:04:31;19.70;93.00
49224;DHT22;35050;51.316;5.994;2022-09-25T16:09:48;19.50;93.30
49224;DHT22;35050;51.316;5.994;2022-09-25T16:17:56;19.20;94.00
49224;DHT22;35050;51.316;5.994;2022-09-25T16:20:34;19.10;94.00
49224;DHT22;35050;51.316;5.994;2022-09-25T16:23:03;19.20;94.60
49224;DHT22;35050;51.316;5.994;2022-09-25T16:25:35;19.20;95.30
49224;DHT22;35050;51.316;5.994;2022-09-25T16:28:04;18.90;95.60
49224;DHT22;35050;51.316;5.994;2022-09-25T16:30:33;18.90;95.40
49224;DHT22;35050;51.316;5.994;2022-09-25T16:33:05;18.90;95.70
49224;DHT22;35050;51.316;5.994;2022-09-25T16:35:34;18.90;96.00
49224;DHT22;35050;51.316;5.994;2022-09-25T16:38:01;18.90;96.70
49224;DHT22;35050;51.316;5.994;2022-09-25T16:40:28;18.80;96.80
49224;DHT22;35050;51.316;5.994;2022-09-25T16:42:59;18.70;96.80
49224;DHT22;35050;51.316;5.994;2022-09-25T16:45:32;18.60;97.40
49224;DHT22;35050;51.316;5.994;2022-09-25T16:48:28;18.60;97.80
49224;DHT22;35050;51.316;5.994;2022-09-25T16:50:54;18.60;98.00
49224;DHT22;35050;51.316;5.994;2022-09-25T16:53:22;18.50;98.20
49224;DHT22;35050;51.316;5.994;2022-09-25T16:55:50;18.40;98.00
49224;DHT22;35050;51.316;5.994;2022-09-25T16:58:19;18.20;98.20
49224;DHT22;35050;51.316;5.994;2022-09-25T17:00:45;18.20;98.80
49224;DHT22;35050;51.316;5.994;2022-09-25T17:03:11;18.10;99.10
49224;DHT22;35050;51.316;5.994;2022-09-25T17:05:37;18.20;99.90
49224;DHT22;35050;51.316;5.994;2022-09-25T17:08:20;18.00;99.60
49224;DHT22;35050;51.316;5.994;2022-09-25T17:10:50;18.00;99.40
49224;DHT22;35050;51.316;5.994;2022-09-25T17:13:20;17.80;99.80
49224;DHT22;35050;51.316;5.994;2022-09-25T17:15:48;17.80;99.90
49224;DHT22;35050;51.316;5.994;2022-09-25T17:18:18;17.80;99.60
49224;DHT22;35050;51.316;5.994;2022-09-25T17:20:44;17.60;99.90
49224;DHT22;35050;51.316;5.994;2022-09-25T17:23:10;17.70;99.90
49224;DHT22;35050;51.316;5.994;2022-09-25T17:25:44;17.70;99.90
49224;DHT22;35050;51.316;5.994;2022-09-25T17:28:12;17.60;99.90
49224;DHT22;35050;51.316;5.994;2022-09-25T17:30:40;17.60;99.90
49224;DHT22;35050;51.316;5.994;2022-09-25T17:33:18;17.50;99.90
49224;DHT22;35050;51.316;5.994;2022-09-25T17:38:16;17.40;99.90
49224;DHT22;35050;51.316;5.994;2022-09-25T17:40:45;17.50;99.90
49224;DHT22;35050;51.316;5.994;2022-09-25T17:43:12;17.50;99.90
49224;DHT22;35050;51.316;5.994;2022-09-25T17:45:50;17.40;99.90
49224;DHT22;35050;51.316;5.994;2022-09-25T17:48:18;17.30;99.90
49224;DHT22;35050;51.316;5.994;2022-09-25T17:51:12;17.40;99.90
49224;DHT22;35050;51.316;5.994;2022-09-25T17:53:39;17.10;99.90
49224;DHT22;35050;51.316;5.994;2022-09-25T17:56:04;17.20;99.90
49224;DHT22;35050;51.316;5.994;2022-09-25T17:58:31;17.10;99.90
49224;DHT22;35050;51.316;5.994;2022-09-25T18:00:58;17.00;99.90
49224;DHT22;35050;51.316;5.994;2022-09-25T18:03:24;17.00;99.90
49224;DHT22;35050;51.316;5.994;2022-09-25T18:05:51;17.00;99.90
49224;DHT22;35050;51.316;5.994;2022-09-25T18:08:17;17.00;99.90
49224;DHT22;35050;51.316;5.994;2022-09-25T18:10:44;16.90;99.90
49224;DHT22;35050;51.316;5.994;2022-09-25T18:13:14;16.90;99.90
49224;DHT22;35050;51.316;5.994;2022-09-25T18:15:58;16.80;99.90
49224;DHT22;35050;51.316;5.994;2022-09-25T18:18:25;16.60;99.90
49224;DHT22;35050;51.316;5.994;2022-09-25T18:21:10;16.60;99.90
49224;DHT22;35050;51.316;5.994;2022-09-25T18:23:54;16.50;99.90
49224;DHT22;35050;51.316;5.994;2022-09-25T18:26:20;16.50;99.90
49224;DHT22;35050;51.316;5.994;2022-09-25T18:28:46;16.40;99.90
49224;DHT22;35050;51.316;5.994;2022-09-25T18:31:11;16.40;99.90